Time;durP1;ratioP1;P1;durP2;ratioP2;P2;SDS_P1;SDS_P2;PMS_P1;PMS_P2;Temp;Humidity;BMP_temperature;BMP_pressure;BME280_temperature;BME280_humidity;BME280_pressure;Samples;Min_cycle;Max_cycle;Signal;HPM_P1;HPM_P2
2021/05/17 00:00:10;;;;;;;0.83;0.80;;;12.90;99.90;;;;;;5094120;28;20549;-50
2021/05/17 00:02:36;;;;;;;1.10;0.80;;;12.70;99.90;;;;;;5094755;28;20170;-49
2021/05/17 00:05:03;;;;;;;1.17;0.80;;;12.40;99.90;;;;;;5095139;28;20173;-50
2021/05/17 00:07:29;;;;;;;1.10;1.00;;;12.30;99.90;;;;;;5094560;28;20279;-48
2021/05/17 00:09:54;;;;;;;2.03;0.80;;;12.30;99.90;;;;;;5093286;28;20600;-49
2021/05/17 00:12:20;;;;;;;1.17;0.90;;;12.20;99.90;;;;;;5094456;28;20185;-50
2021/05/17 00:14:46;;;;;;;1.70;1.10;;;12.10;99.90;;;;;;5093875;28;20657;-50
2021/05/17 00:17:12;;;;;;;2.00;1.20;;;12.10;99.90;;;;;;5093800;28;20197;-51
2021/05/17 00:19:38;;;;;;;2.70;1.13;;;12.00;99.90;;;;;;5094412;28;20173;-47
2021/05/17 00:22:04;;;;;;;2.80;1.10;;;11.80;99.90;;;;;;5093783;28;20254;-47
2021/05/17 00:24:31;;;;;;;1.10;1.00;;;11.70;99.90;;;;;;5094534;28;20252;-45
2021/05/17 00:26:57;;;;;;;1.13;0.90;;;11.70;99.90;;;;;;5094364;28;20185;-55
2021/05/17 00:29:23;;;;;;;2.20;1.03;;;11.70;99.90;;;;;;5094309;28;20248;-46
2021/05/17 00:31:49;;;;;;;1.50;0.90;;;11.70;99.90;;;;;;5094058;28;20319;-47
2021/05/17 00:34:14;;;;;;;1.63;1.00;;;11.80;99.90;;;;;;5094662;28;20172;-50
2021/05/17 00:36:41;;;;;;;1.27;1.00;;;12.00;99.90;;;;;;5094045;28;20206;-46
2021/05/17 00:39:11;;;;;;;1.00;0.90;;;12.10;99.90;;;;;;5092795;28;20280;-46
2021/05/17 00:41:38;;;;;;;1.43;1.00;;;12.30;99.90;;;;;;5093619;28;20280;-50
2021/05/17 00:44:05;;;;;;;1.10;0.90;;;12.30;99.90;;;;;;5093838;28;20173;-50
2021/05/17 00:46:32;;;;;;;1.67;1.10;;;12.40;99.90;;;;;;5093036;28;20243;-49
2021/05/17 00:48:58;;;;;;;1.47;0.80;;;12.40;99.90;;;;;;5094611;28;20177;-47
2021/05/17 00:51:24;;;;;;;0.87;0.87;;;12.30;99.90;;;;;;5094147;28;20184;-48
2021/05/17 00:53:50;;;;;;;2.40;0.83;;;12.10;99.90;;;;;;5092695;28;20193;-48
2021/05/17 00:56:16;;;;;;;1.67;0.80;;;12.00;99.90;;;;;;5093536;28;20193;-50
2021/05/17 00:58:41;;;;;;;1.80;1.00;;;11.80;99.90;;;;;;5094342;28;20173;-49
2021/05/17 01:01:08;;;;;;;0.80;0.70;;;11.80;99.90;;;;;;5092659;28;20209;-47
2021/05/17 01:03:35;;;;;;;2.40;1.07;;;11.70;99.90;;;;;;5094569;28;20185;-46
2021/05/17 01:06:03;;;;;;;1.73;0.80;;;11.70;99.90;;;;;;5094054;28;20201;-50
2021/05/17 01:08:54;;;;;;;1.00;0.73;;;11.70;99.90;;;;;;5092688;28;20208;-46
2021/05/17 01:11:25;;;;;;;1.13;0.97;;;11.70;99.90;;;;;;5093800;28;20173;-48
2021/05/17 01:13:54;;;;;;;3.00;0.90;;;11.70;99.90;;;;;;5094023;28;20181;-47
2021/05/17 01:16:20;;;;;;;2.67;1.00;;;11.80;99.90;;;;;;5092772;28;20235;-46
2021/05/17 01:18:48;;;;;;;1.70;1.00;;;11.80;99.90;;;;;;5093604;28;20251;-49
2021/05/17 01:21:17;;;;;;;1.07;0.83;;;12.00;99.90;;;;;;5093307;28;20203;-49
2021/05/17 01:23:57;;;;;;;1.53;1.07;;;12.00;99.90;;;;;;5092290;28;20217;-46
2021/05/17 01:26:27;;;;;;;2.10;1.00;;;11.90;99.90;;;;;;5093703;28;20201;-50
2021/05/17 01:28:57;;;;;;;3.43;1.17;;;11.90;99.90;;;;;;5093477;28;20189;-49
2021/05/17 01:31:23;;;;;;;2.00;0.83;;;12.00;99.90;;;;;;5096371;28;20166;-53
2021/05/17 01:33:49;;;;;;;1.80;0.90;;;12.00;99.90;;;;;;5080740;28;20186;-49
2021/05/17 01:36:16;;;;;;;1.97;0.83;;;12.00;99.90;;;;;;5088667;28;20229;-48
2021/05/17 01:38:52;;;;;;;0.90;0.80;;;12.00;99.90;;;;;;5097284;28;20196;-46
2021/05/17 01:41:19;;;;;;;0.80;0.70;;;12.10;99.90;;;;;;5097307;28;20201;-46
2021/05/17 01:43:52;;;;;;;0.83;0.83;;;12.00;99.90;;;;;;5097662;28;20177;-47
2021/05/17 01:46:20;;;;;;;1.03;0.80;;;12.00;99.90;;;;;;5097166;28;20665;-49
2021/05/17 01:48:46;;;;;;;1.10;0.90;;;12.00;99.90;;;;;;5097787;28;20174;-46
2021/05/17 01:51:15;;;;;;;2.10;0.90;;;12.10;99.90;;;;;;5096458;28;20617;-52
2021/05/17 01:53:41;;;;;;;0.97;0.97;;;12.10;99.90;;;;;;5096470;28;20533;-48
2021/05/17 01:56:08;;;;;;;0.97;0.80;;;12.10;99.90;;;;;;5096922;28;20248;-48
2021/05/17 01:58:36;;;;;;;5.03;1.00;;;12.10;99.90;;;;;;5096428;28;20225;-46
2021/05/17 02:01:07;;;;;;;2.43;1.20;;;12.00;99.90;;;;;;5097013;28;20207;-48
2021/05/17 02:03:40;;;;;;;1.77;1.10;;;12.00;99.90;;;;;;5096992;28;20192;-51
2021/05/17 02:06:07;;;;;;;1.27;0.90;;;12.00;99.90;;;;;;5096545;28;20189;-51
2021/05/17 02:08:38;;;;;;;1.10;0.90;;;12.00;99.90;;;;;;5095694;28;20206;-50
2021/05/17 02:11:08;;;;;;;1.33;0.87;;;11.90;99.90;;;;;;5096287;28;20170;-48
2021/05/17 02:13:36;;;;;;;1.37;1.10;;;11.80;99.90;;;;;;5096726;28;20186;-48
2021/05/17 02:16:03;;;;;;;1.20;1.10;;;11.80;99.90;;;;;;5095813;28;20284;-46
2021/05/17 02:18:29;;;;;;;0.83;0.80;;;11.80;99.90;;;;;;5096619;28;20178;-51
2021/05/17 02:20:54;;;;;;;0.80;0.80;;;11.70;99.90;;;;;;5096259;28;20216;-50
2021/05/17 02:23:20;;;;;;;0.90;0.90;;;11.80;99.90;;;;;;5095876;28;20193;-46
2021/05/17 02:25:50;;;;;;;0.90;0.80;;;11.70;99.90;;;;;;5095872;28;20153;-54
2021/05/17 02:28:17;;;;;;;1.40;0.83;;;11.70;99.90;;;;;;5096260;28;20543;-48
2021/05/17 02:30:44;;;;;;;1.13;0.90;;;11.70;99.90;;;;;;5095387;28;20495;-47
2021/05/17 02:33:13;;;;;;;0.73;0.73;;;11.80;99.90;;;;;;5096473;28;20173;-49
2021/05/17 02:35:39;;;;;;;0.97;0.80;;;11.80;99.90;;;;;;5096875;28;20595;-45
2021/05/17 02:38:07;;;;;;;0.73;0.73;;;11.80;99.90;;;;;;5095873;28;20170;-48
2021/05/17 02:40:34;;;;;;;1.87;1.10;;;11.80;99.90;;;;;;5094846;28;22087;-50
2021/05/17 02:43:03;;;;;;;0.80;0.80;;;11.70;99.90;;;;;;5095668;28;20227;-49
2021/05/17 02:45:29;;;;;;;0.90;0.90;;;11.70;99.90;;;;;;5095044;28;20165;-45
2021/05/17 02:47:57;;;;;;;1.80;0.90;;;11.70;99.90;;;;;;5096717;28;20299;-45
2021/05/17 02:50:39;;;;;;;1.70;0.87;;;11.80;99.90;;;;;;5096142;28;20182;-49
2021/05/17 02:53:25;;;;;;;0.70;0.70;;;11.70;99.90;;;;;;5075556;28;20162;-46
2021/05/17 02:55:54;;;;;;;1.87;0.80;;;11.70;99.90;;;;;;5078647;28;20571;-55
2021/05/17 02:58:22;;;;;;;1.00;0.70;;;11.60;99.90;;;;;;5095891;28;20656;-49
2021/05/17 03:01:00;;;;;;;0.70;0.67;;;11.50;99.90;;;;;;5094916;28;20285;-54
2021/05/17 03:03:29;;;;;;;0.60;0.60;;;11.50;99.90;;;;;;5096580;28;20245;-48
2021/05/17 03:06:06;;;;;;;1.80;0.90;;;11.40;99.90;;;;;;5095991;28;20170;-48
2021/05/17 03:09:10;;;;;;;1.07;0.77;;;11.40;99.90;;;;;;5094879;28;20228;-47
2021/05/17 03:11:40;;;;;;;1.27;0.70;;;11.30;99.90;;;;;;5092065;28;20174;-49
2021/05/17 03:14:09;;;;;;;4.00;1.53;;;11.30;99.90;;;;;;5095265;28;20264;-49
2021/05/17 03:16:37;;;;;;;2.73;0.73;;;11.20;99.90;;;;;;5094543;28;20264;-50
2021/05/17 03:19:03;;;;;;;0.73;0.70;;;11.10;99.90;;;;;;5095936;28;20186;-49
2021/05/17 03:21:31;;;;;;;0.83;0.83;;;11.10;99.90;;;;;;5095230;28;20204;-49
2021/05/17 03:23:58;;;;;;;0.73;0.70;;;11.10;99.90;;;;;;5094189;28;20196;-48
2021/05/17 03:26:25;;;;;;;2.20;0.60;;;11.10;99.90;;;;;;5095449;28;20197;-48
2021/05/17 03:28:50;;;;;;;0.60;0.60;;;11.10;99.90;;;;;;5095235;28;20166;-46
2021/05/17 03:31:16;;;;;;;0.63;0.60;;;11.00;99.90;;;;;;5094517;28;20192;-46
2021/05/17 03:33:42;;;;;;;2.63;0.87;;;11.10;99.90;;;;;;5095090;28;20667;-54
2021/05/17 03:36:08;;;;;;;1.07;0.50;;;11.10;99.90;;;;;;5093814;28;20194;-48
2021/05/17 03:38:33;;;;;;;0.60;0.60;;;11.10;99.90;;;;;;5094489;28;20258;-48
2021/05/17 03:40:59;;;;;;;1.20;0.60;;;11.10;99.90;;;;;;5093620;28;20197;-46
2021/05/17 03:43:25;;;;;;;1.53;0.60;;;11.10;99.90;;;;;;5093957;28;20193;-49
2021/05/17 03:45:51;;;;;;;1.73;0.60;;;11.10;99.90;;;;;;5094780;28;20519;-48
2021/05/17 03:48:17;;;;;;;1.23;0.60;;;11.00;99.90;;;;;;5095638;28;20177;-51
2021/05/17 03:50:43;;;;;;;0.50;0.50;;;11.00;99.90;;;;;;5094020;28;20189;-51
2021/05/17 03:53:08;;;;;;;0.50;0.50;;;10.90;99.90;;;;;;5094217;28;20173;-48
2021/05/17 03:55:34;;;;;;;0.70;0.70;;;10.90;99.90;;;;;;5093840;28;20220;-49
2021/05/17 03:58:00;;;;;;;1.00;0.50;;;10.80;99.90;;;;;;5094885;28;20669;-48
2021/05/17 04:00:27;;;;;;;0.90;0.60;;;10.80;99.90;;;;;;5093467;28;20205;-52
2021/05/17 04:02:54;;;;;;;1.20;0.70;;;10.80;99.90;;;;;;5094741;28;20192;-46
2021/05/17 04:05:32;;;;;;;0.57;0.57;;;10.90;99.90;;;;;;5094540;28;20604;-48
2021/05/17 04:08:12;;;;;;;2.00;0.63;;;10.90;99.90;;;;;;5094889;28;20197;-49
2021/05/17 04:13:26;;;;;;;0.73;0.60;;;10.80;99.90;;;;;;5094731;28;20180;-49
2021/05/17 04:15:54;;;;;;;0.60;0.60;;;10.70;99.90;;;;;;5094768;28;20166;-48
2021/05/17 04:18:20;;;;;;;1.33;0.60;;;10.60;99.90;;;;;;5094591;28;20189;-46
2021/05/17 04:20:47;;;;;;;0.63;0.63;;;10.60;99.90;;;;;;5095070;28;20201;-53
2021/05/17 04:23:14;;;;;;;0.83;0.60;;;10.70;99.90;;;;;;5093806;28;20185;-52
2021/05/17 04:25:39;;;;;;;0.60;0.60;;;10.60;99.90;;;;;;5093919;28;20244;-47
2021/05/17 04:28:05;;;;;;;0.97;0.70;;;10.70;99.90;;;;;;5094836;28;20197;-48
2021/05/17 04:30:32;;;;;;;0.50;0.50;;;10.70;99.90;;;;;;5093199;28;20697;-46
2021/05/17 04:32:58;;;;;;;1.73;0.60;;;10.70;99.90;;;;;;5094807;28;20174;-47
2021/05/17 04:35:24;;;;;;;1.70;0.83;;;10.80;99.90;;;;;;5094111;28;20185;-47
2021/05/17 04:37:50;;;;;;;1.10;0.70;;;10.80;99.90;;;;;;5094077;28;20197;-48
2021/05/17 04:40:16;;;;;;;1.10;0.87;;;10.80;99.90;;;;;;5094459;28;20192;-52
2021/05/17 04:42:42;;;;;;;1.73;0.70;;;10.80;99.90;;;;;;5093013;28;20186;-48
2021/05/17 04:45:09;;;;;;;1.13;0.60;;;10.80;99.90;;;;;;5095161;28;20201;-46
2021/05/17 04:47:34;;;;;;;0.80;0.60;;;10.80;99.90;;;;;;5093816;28;20247;-48
2021/05/17 04:50:00;;;;;;;3.67;0.90;;;10.70;99.90;;;;;;5094126;28;20177;-46
2021/05/17 04:52:26;;;;;;;0.90;0.57;;;10.70;99.90;;;;;;5093884;28;20252;-44
2021/05/17 04:54:51;;;;;;;1.33;0.60;;;10.60;99.90;;;;;;5093974;28;20182;-50
2021/05/17 04:57:17;;;;;;;0.60;0.60;;;10.70;99.90;;;;;;5094467;28;20212;-49
2021/05/17 04:59:42;;;;;;;3.23;0.70;;;10.70;99.90;;;;;;5093940;28;20189;-46
2021/05/17 05:02:08;;;;;;;0.60;0.60;;;10.70;99.90;;;;;;5093862;28;20204;-48
2021/05/17 05:04:34;;;;;;;1.60;0.70;;;10.60;99.90;;;;;;5093515;28;20186;-48
2021/05/17 05:07:00;;;;;;;0.67;0.63;;;10.70;99.90;;;;;;5093331;28;20552;-46
2021/05/17 05:09:25;;;;;;;1.30;0.47;;;10.60;99.90;;;;;;5092374;28;20193;-51
2021/05/17 05:11:51;;;;;;;0.57;0.57;;;10.70;99.90;;;;;;5092902;28;20181;-51
2021/05/17 05:14:16;;;;;;;1.13;0.77;;;10.70;99.90;;;;;;5093535;28;20186;-49
2021/05/17 05:16:42;;;;;;;0.90;0.77;;;10.70;99.90;;;;;;5092579;28;20205;-48
2021/05/17 05:19:08;;;;;;;1.90;0.70;;;10.70;99.90;;;;;;5094381;28;20184;-48
2021/05/17 05:21:34;;;;;;;0.83;0.60;;;10.70;99.90;;;;;;5092705;28;20266;-52
2021/05/17 05:24:00;;;;;;;0.70;0.60;;;10.70;99.90;;;;;;5093319;28;20262;-48
2021/05/17 05:26:48;;;;;;;0.70;0.60;;;10.70;99.90;;;;;;5093802;28;20703;-49
2021/05/17 05:29:24;;;;;;;1.50;0.60;;;10.70;99.90;;;;;;5093087;28;20248;-51
2021/05/17 05:31:58;;;;;;;2.00;0.60;;;10.70;99.90;;;;;;5093675;28;20178;-49
2021/05/17 05:34:26;;;;;;;1.53;0.70;;;10.80;99.90;;;;;;5092600;28;20182;-46
2021/05/17 05:36:52;;;;;;;0.60;0.60;;;10.80;99.90;;;;;;5093439;28;20703;-46
2021/05/17 05:39:18;;;;;;;1.53;0.70;;;10.80;99.90;;;;;;5092549;28;20185;-46
2021/05/17 05:41:43;;;;;;;1.40;0.80;;;10.90;99.90;;;;;;5092342;28;20243;-47
2021/05/17 05:44:09;;;;;;;1.23;0.97;;;11.00;99.90;;;;;;5093159;28;20577;-46
2021/05/17 05:46:35;;;;;;;1.47;0.90;;;10.90;99.90;;;;;;5092387;28;20277;-49
2021/05/17 05:49:00;;;;;;;2.70;1.07;;;10.90;99.90;;;;;;5094400;28;20222;-52
2021/05/17 05:51:28;;;;;;;1.60;0.70;;;10.90;99.90;;;;;;5093238;28;20189;-48
2021/05/17 05:53:55;;;;;;;0.93;0.60;;;10.90;99.90;;;;;;5092509;28;20174;-49
2021/05/17 05:56:21;;;;;;;1.50;0.50;;;11.00;99.90;;;;;;5093725;28;20197;-51
2021/05/17 05:58:48;;;;;;;2.00;0.60;;;11.00;99.90;;;;;;5093811;28;20498;-48
2021/05/17 06:01:14;;;;;;;0.87;0.73;;;11.00;99.90;;;;;;5091858;28;20197;-47
2021/05/17 06:03:40;;;;;;;2.13;0.70;;;11.00;99.90;;;;;;5094114;28;20170;-47
2021/05/17 06:06:08;;;;;;;0.80;0.53;;;11.10;99.90;;;;;;5082997;28;20234;-45
2021/05/17 06:08:34;;;;;;;1.17;0.63;;;11.00;99.90;;;;;;5073468;28;20179;-47
2021/05/17 06:11:01;;;;;;;0.60;0.60;;;12.00;99.90;;;;;;5071950;28;20194;-46
2021/05/17 06:13:27;;;;;;;3.10;0.90;;;11.10;99.90;;;;;;5073496;28;20178;-49
2021/05/17 06:15:52;;;;;;;0.60;0.60;;;11.10;99.90;;;;;;5072619;28;20178;-46
2021/05/17 06:18:18;;;;;;;0.83;0.73;;;11.20;99.90;;;;;;5077257;28;20171;-53
2021/05/17 06:20:44;;;;;;;1.67;0.90;;;11.20;99.90;;;;;;5075234;28;20609;-54
2021/05/17 06:23:13;;;;;;;1.13;0.50;;;11.20;99.90;;;;;;5076654;28;20174;-46
2021/05/17 06:25:39;;;;;;;2.00;0.60;;;11.20;99.90;;;;;;5076353;28;20174;-47
2021/05/17 06:28:05;;;;;;;4.23;0.97;;;11.20;99.90;;;;;;5074843;28;20186;-47
2021/05/17 06:30:35;;;;;;;2.47;1.17;;;11.10;99.90;;;;;;5076496;28;20166;-45
2021/05/17 06:33:04;;;;;;;1.00;0.47;;;11.10;99.90;;;;;;5076167;28;20301;-46
2021/05/17 06:35:33;;;;;;;0.83;0.67;;;11.20;99.90;;;;;;5076417;28;20185;-46
2021/05/17 06:37:58;;;;;;;1.00;0.70;;;11.30;99.90;;;;;;5076344;28;20190;-50
2021/05/17 06:40:24;;;;;;;1.20;0.80;;;11.30;99.90;;;;;;5075247;28;20201;-48
2021/05/17 06:42:50;;;;;;;0.63;0.60;;;11.30;99.90;;;;;;5076676;28;20507;-48
2021/05/17 06:45:16;;;;;;;1.57;0.50;;;11.40;99.90;;;;;;5075475;28;20177;-49
2021/05/17 06:47:43;;;;;;;0.57;0.57;;;11.50;99.90;;;;;;5076936;28;20632;-46
2021/05/17 06:50:09;;;;;;;2.63;0.70;;;11.60;99.90;;;;;;5076221;28;20182;-50
2021/05/17 06:52:35;;;;;;;0.83;0.60;;;11.60;99.90;;;;;;5076055;28;20174;-47
2021/05/17 06:55:11;;;;;;;1.67;1.20;;;11.60;99.90;;;;;;5076692;28;20220;-51
2021/05/17 06:57:58;;;;;;;1.53;0.90;;;11.70;99.90;;;;;;5076006;28;20214;-54
2021/05/17 07:02:52;;;;;;;1.53;0.67;;;11.80;99.90;;;;;;5076022;28;20228;-48
2021/05/17 07:05:21;;;;;;;2.43;0.80;;;11.90;99.90;;;;;;5075998;28;20186;-48
2021/05/17 07:07:58;;;;;;;1.40;0.60;;;11.90;99.90;;;;;;5075743;28;20247;-49
2021/05/17 07:13:08;;;;;;;1.23;0.93;;;12.00;99.90;;;;;;5075954;28;20170;-46
2021/05/17 07:15:34;;;;;;;2.23;0.80;;;12.00;99.90;;;;;;5075629;28;20178;-48
2021/05/17 07:18:00;;;;;;;1.23;0.90;;;12.10;99.90;;;;;;5075761;28;20202;-49
2021/05/17 07:20:33;;;;;;;2.87;0.93;;;12.10;99.90;;;;;;5076041;28;20179;-47
2021/05/17 07:25:43;;;;;;;1.37;0.90;;;12.00;99.90;;;;;;5073663;28;20178;-51
2021/05/17 07:28:09;;;;;;;1.07;0.97;;;11.90;99.90;;;;;;5074719;28;20170;-48
2021/05/17 07:30:34;;;;;;;1.43;0.90;;;11.80;99.90;;;;;;5074254;28;20253;-51
2021/05/17 07:33:00;;;;;;;0.87;0.70;;;11.70;99.90;;;;;;5075549;28;20206;-48
2021/05/17 07:35:26;;;;;;;1.77;0.90;;;11.70;99.90;;;;;;5074450;28;20194;-46
2021/05/17 07:37:51;;;;;;;1.43;0.70;;;11.70;99.90;;;;;;5075065;28;20201;-48
2021/05/17 07:40:17;;;;;;;1.47;0.80;;;11.70;99.90;;;;;;5075127;28;20630;-48
2021/05/17 07:42:43;;;;;;;0.50;0.50;;;11.70;99.90;;;;;;5073876;28;20213;-48
2021/05/17 07:45:09;;;;;;;0.87;0.70;;;11.80;99.90;;;;;;5075386;28;20171;-52
2021/05/17 07:47:35;;;;;;;0.93;0.60;;;11.80;99.90;;;;;;5074683;28;20190;-48
2021/05/17 07:50:01;;;;;;;3.57;0.70;;;11.80;99.90;;;;;;5075440;28;20173;-46
2021/05/17 07:52:26;;;;;;;1.03;0.70;;;11.70;99.90;;;;;;5075077;28;20196;-47
2021/05/17 07:54:52;;;;;;;1.83;0.80;;;11.80;99.90;;;;;;5075066;28;20196;-50
2021/05/17 07:57:17;;;;;;;0.67;0.50;;;11.80;99.90;;;;;;5074778;28;20217;-48
2021/05/17 07:59:43;;;;;;;2.23;0.57;;;11.90;99.90;;;;;;5074837;28;20687;-46
2021/05/17 08:02:09;;;;;;;1.53;0.83;;;12.00;99.90;;;;;;5074521;28;20194;-51
2021/05/17 08:04:34;;;;;;;0.80;0.60;;;11.90;99.90;;;;;;5074727;28;20200;-51
2021/05/17 08:07:02;;;;;;;1.43;0.50;;;12.10;99.90;;;;;;5074740;28;20550;-48
2021/05/17 08:09:28;;;;;;;1.33;0.63;;;12.10;99.90;;;;;;5073348;28;20581;-46
2021/05/17 08:11:53;;;;;;;0.40;0.40;;;12.20;99.90;;;;;;5074616;28;20185;-47
2021/05/17 08:14:20;;;;;;;0.97;0.60;;;12.40;99.90;;;;;;5074467;28;20202;-47
2021/05/17 08:16:46;;;;;;;2.60;0.80;;;12.60;99.90;;;;;;5074066;28;20205;-52
2021/05/17 08:19:12;;;;;;;0.80;0.47;;;12.80;99.90;;;;;;5074941;28;20180;-51
2021/05/17 08:21:37;;;;;;;0.93;0.60;;;13.00;99.90;;;;;;5072729;28;20349;-52
2021/05/17 08:24:04;;;;;;;1.63;0.67;;;13.10;99.90;;;;;;5074219;28;20241;-47
2021/05/17 08:26:29;;;;;;;0.40;0.40;;;13.10;99.90;;;;;;5073167;28;20195;-49
2021/05/17 08:28:55;;;;;;;1.87;0.70;;;13.00;99.90;;;;;;5074768;28;20286;-48
2021/05/17 08:31:21;;;;;;;1.50;0.53;;;12.90;99.90;;;;;;5073835;28;20180;-46
2021/05/17 08:33:48;;;;;;;1.23;0.70;;;12.80;99.90;;;;;;5074364;28;20185;-46
2021/05/17 08:36:14;;;;;;;0.93;0.63;;;12.70;99.90;;;;;;5074249;28;20642;-46
2021/05/17 08:38:40;;;;;;;0.90;0.70;;;12.50;99.90;;;;;;5072483;28;20288;-54
2021/05/17 08:41:07;;;;;;;0.50;0.50;;;12.40;99.90;;;;;;5073677;28;20206;-50
2021/05/17 08:43:36;;;;;;;2.97;0.80;;;12.20;99.90;;;;;;5074829;28;20174;-53
2021/05/17 08:46:02;;;;;;;0.77;0.60;;;12.20;99.90;;;;;;5073026;28;20248;-48
2021/05/17 08:48:28;;;;;;;2.07;0.70;;;12.30;99.90;;;;;;5074618;28;20511;-47
2021/05/17 08:50:53;;;;;;;1.10;0.53;;;12.40;99.90;;;;;;5073830;28;20174;-49
2021/05/17 08:53:19;;;;;;;0.83;0.47;;;12.60;99.90;;;;;;5074377;28;20243;-48
2021/05/17 08:55:45;;;;;;;2.20;1.07;;;12.90;99.90;;;;;;5074152;28;20180;-47
2021/05/17 08:58:11;;;;;;;1.53;0.70;;;13.20;99.90;;;;;;5074321;28;20213;-48
2021/05/17 09:00:37;;;;;;;1.63;0.50;;;13.60;99.90;;;;;;5073770;28;20179;-53
2021/05/17 09:03:02;;;;;;;1.70;0.40;;;13.80;99.90;;;;;;5073911;28;20195;-46
2021/05/17 09:05:32;;;;;;;0.93;0.50;;;13.90;99.90;;;;;;5073960;28;20260;-47
2021/05/17 09:08:02;;;;;;;2.27;0.97;;;14.10;99.90;;;;;;5074052;28;20543;-50
2021/05/17 09:10:38;;;;;;;3.27;0.67;;;14.30;99.90;;;;;;5073086;28;20197;-46
2021/05/17 09:13:06;;;;;;;1.23;0.60;;;14.40;99.90;;;;;;5073602;28;20176;-49
2021/05/17 09:15:50;;;;;;;1.70;0.43;;;14.20;99.90;;;;;;5072821;28;20173;-50
2021/05/17 09:18:21;;;;;;;1.43;0.50;;;14.10;99.90;;;;;;5073734;28;20567;-52
2021/05/17 09:20:49;;;;;;;1.00;0.43;;;13.80;99.90;;;;;;5073886;28;20200;-48
2021/05/17 09:23:21;;;;;;;1.23;0.47;;;13.70;99.90;;;;;;5087976;28;20266;-49
2021/05/17 09:26:08;;;;;;;0.70;0.50;;;13.60;99.90;;;;;;5094590;28;20172;-48
2021/05/17 09:28:46;;;;;;;1.40;0.70;;;13.60;99.90;;;;;;5094056;28;20176;-50
2021/05/17 09:31:18;;;;;;;3.90;1.00;;;13.50;99.90;;;;;;5093818;28;20167;-50
2021/05/17 09:33:53;;;;;;;4.43;0.83;;;13.50;99.90;;;;;;5092317;28;20242;-49
2021/05/17 09:36:36;;;;;;;2.37;0.90;;;13.50;99.90;;;;;;5093663;28;20228;-56
2021/05/17 09:39:13;;;;;;;1.80;0.70;;;13.60;99.90;;;;;;5091782;28;20199;-47
2021/05/17 09:41:43;;;;;;;1.43;0.70;;;13.90;99.90;;;;;;5093485;28;20203;-47
2021/05/17 09:44:11;;;;;;;0.60;0.50;;;14.30;99.90;;;;;;5092608;28;20188;-52
2021/05/17 09:47:14;;;;;;;0.97;0.50;;;14.30;99.90;;;;;;5093787;28;20188;-49
2021/05/17 09:49:50;;;;;;;0.60;0.40;;;14.20;99.90;;;;;;5092912;28;20183;-48
2021/05/17 09:52:26;;;;;;;0.67;0.50;;;14.00;99.90;;;;;;5097303;28;20184;-50
2021/05/17 09:55:12;;;;;;;1.87;0.70;;;13.80;99.90;;;;;;5097148;28;20198;-47
2021/05/17 09:57:39;;;;;;;2.00;0.50;;;13.80;99.90;;;;;;5097136;28;20195;-47
2021/05/17 10:00:20;;;;;;;1.13;0.50;;;13.90;99.90;;;;;;5097565;28;20173;-50
2021/05/17 10:02:49;;;;;;;2.60;0.60;;;14.10;99.90;;;;;;5095986;28;20216;-50
2021/05/17 10:05:28;;;;;;;1.73;0.60;;;14.50;99.90;;;;;;5097839;28;20185;-52
2021/05/17 10:07:55;;;;;;;2.53;0.67;;;14.60;99.90;;;;;;5096584;28;20190;-55
2021/05/17 10:10:23;;;;;;;2.57;0.70;;;14.50;99.90;;;;;;5097380;28;20510;-54
2021/05/17 10:12:53;;;;;;;0.90;0.50;;;14.40;99.90;;;;;;5097425;28;20229;-46
2021/05/17 10:15:21;;;;;;;3.07;0.73;;;14.10;99.90;;;;;;5097084;28;20186;-51
2021/05/17 10:17:47;;;;;;;3.17;1.10;;;14.00;99.90;;;;;;5097306;28;20196;-47
2021/05/17 10:20:17;;;;;;;1.47;0.70;;;14.00;99.90;;;;;;5096723;28;20309;-47
2021/05/17 10:22:44;;;;;;;1.20;0.53;;;14.00;99.90;;;;;;5096976;28;20208;-49
2021/05/17 10:25:11;;;;;;;1.43;0.57;;;14.00;99.90;;;;;;5095829;28;20188;-50
2021/05/17 10:27:45;;;;;;;1.00;0.60;;;14.10;99.90;;;;;;5097204;28;20192;-46
2021/05/17 10:30:11;;;;;;;2.03;0.80;;;14.00;99.90;;;;;;5096164;28;20179;-47
2021/05/17 10:32:53;;;;;;;1.73;0.77;;;14.20;99.90;;;;;;5096440;28;20663;-49
2021/05/17 10:35:45;;;;;;;1.17;0.63;;;14.40;99.90;;;;;;5096258;28;20614;-49
2021/05/17 10:38:46;;;;;;;3.90;1.23;;;14.40;99.90;;;;;;5094112;28;20654;-47
2021/05/17 10:41:19;;;;;;;1.43;0.80;;;14.00;99.90;;;;;;5095925;28;20832;-48
2021/05/17 10:44:27;;;;;;;4.53;0.80;;;13.20;99.90;;;;;;5096715;28;20167;-48
2021/05/17 10:46:54;;;;;;;0.97;0.50;;;12.70;99.90;;;;;;5096624;28;20255;-46
2021/05/17 10:49:28;;;;;;;1.37;0.83;;;12.70;99.90;;;;;;5096533;28;20589;-48
2021/05/17 10:52:19;;;;;;;2.47;0.67;;;12.80;99.90;;;;;;5096653;28;20158;-45
2021/05/17 10:54:46;;;;;;;1.73;0.70;;;13.00;99.90;;;;;;5095774;28;20227;-49
2021/05/17 10:57:38;;;;;;;1.63;0.60;;;13.30;99.90;;;;;;5094979;28;20663;-51
2021/05/17 11:00:26;;;;;;;2.80;0.80;;;13.80;99.90;;;;;;5096469;28;20167;-50
2021/05/17 11:03:21;;;;;;;1.30;0.70;;;14.20;99.90;;;;;;5094384;28;20196;-47
2021/05/17 11:05:48;;;;;;;2.67;0.97;;;14.40;99.90;;;;;;5096914;28;20237;-49
2021/05/17 11:08:16;;;;;;;2.13;0.73;;;14.60;99.90;;;;;;5095828;28;20630;-46
2021/05/17 11:10:45;;;;;;;1.37;0.90;;;14.80;99.90;;;;;;5096138;28;20213;-51
2021/05/17 11:13:23;;;;;;;1.53;0.73;;;14.80;99.90;;;;;;5095705;28;20178;-51
2021/05/17 11:15:59;;;;;;;2.90;0.80;;;14.80;99.90;;;;;;5095742;28;20170;-54
2021/05/17 11:18:33;;;;;;;2.17;0.70;;;14.40;99.90;;;;;;5096804;28;20153;-46
2021/05/17 11:21:27;;;;;;;5.30;0.73;;;14.00;99.90;;;;;;5095074;28;20207;-45
2021/05/17 11:23:57;;;;;;;1.37;0.60;;;13.70;99.90;;;;;;5091344;28;20655;-48
2021/05/17 11:26:24;;;;;;;1.53;0.60;;;13.50;99.90;;;;;;5095576;28;20690;-47
2021/05/17 11:28:54;;;;;;;1.83;0.50;;;13.50;99.90;;;;;;5095505;28;20712;-48
2021/05/17 11:31:28;;;;;;;1.43;0.50;;;13.60;99.90;;;;;;5095232;28;20584;-52
2021/05/17 11:34:01;;;;;;;8.80;0.70;;;13.70;99.90;;;;;;5095541;28;20204;-46
2021/05/17 11:36:46;;;;;;;1.90;0.70;;;13.90;99.90;;;;;;5095454;28;20541;-47
2021/05/17 11:39:20;;;;;;;0.73;0.47;;;14.30;99.90;;;;;;5094269;28;20187;-46
2021/05/17 11:41:57;;;;;;;0.80;0.60;;;14.00;99.90;;;;;;5095148;28;20234;-48
2021/05/17 11:44:37;;;;;;;1.40;0.60;;;13.90;99.90;;;;;;5095671;28;20199;-46
2021/05/17 11:47:04;;;;;;;1.33;0.80;;;13.90;99.90;;;;;;5095211;28;20225;-47
2021/05/17 11:49:32;;;;;;;1.63;0.80;;;13.90;99.90;;;;;;5095914;28;20180;-48
2021/05/17 11:52:04;;;;;;;1.40;0.63;;;14.00;99.90;;;;;;5095467;28;20270;-48
2021/05/17 11:54:36;;;;;;;3.90;0.90;;;14.40;99.90;;;;;;5094113;28;20186;-48
2021/05/17 11:57:01;;;;;;;1.47;0.60;;;14.90;99.90;;;;;;5094917;28;20254;-47
2021/05/17 11:59:29;;;;;;;1.90;0.67;;;15.30;99.90;;;;;;5094633;28;20253;-46
2021/05/17 12:01:58;;;;;;;5.17;0.80;;;15.40;99.90;;;;;;5095068;28;20725;-50
2021/05/17 12:04:25;;;;;;;1.10;0.70;;;15.50;99.90;;;;;;5095644;28;20185;-49
2021/05/17 12:06:56;;;;;;;2.13;0.90;;;15.70;99.90;;;;;;5095129;28;20250;-53
2021/05/17 12:09:55;;;;;;;1.47;0.90;;;16.30;99.90;;;;;;5093831;28;20526;-48
2021/05/17 12:12:26;;;;;;;1.93;0.80;;;16.50;99.90;;;;;;5051157;28;20187;-46
2021/05/17 12:14:57;;;;;;;2.43;0.80;;;16.40;99.90;;;;;;5052298;28;20191;-48
2021/05/17 12:17:28;;;;;;;1.27;0.73;;;16.40;99.90;;;;;;5051300;28;20195;-48
2021/05/17 12:19:59;;;;;;;0.80;0.50;;;16.30;99.90;;;;;;5052726;28;20246;-51
2021/05/17 12:22:32;;;;;;;1.50;0.70;;;16.00;99.90;;;;;;5051872;28;20214;-48
2021/05/17 12:24:59;;;;;;;1.77;0.50;;;15.60;99.90;;;;;;5052536;28;20197;-55
2021/05/17 12:27:25;;;;;;;0.73;0.43;;;14.70;99.90;;;;;;5052261;28;20225;-46
2021/05/17 12:30:01;;;;;;;2.53;0.50;;;13.90;99.90;;;;;;5052027;28;20173;-47
2021/05/17 12:32:32;;;;;;;2.13;0.67;;;13.50;99.90;;;;;;5049987;28;20192;-48
2021/05/17 12:35:00;;;;;;;0.50;0.40;;;13.20;99.90;;;;;;5052168;28;20207;-48
2021/05/17 12:37:30;;;;;;;2.07;0.50;;;13.20;99.90;;;;;;5051496;28;20284;-49
2021/05/17 12:40:11;;;;;;;1.50;0.50;;;13.30;99.90;;;;;;5051818;28;20187;-46
2021/05/17 12:42:38;;;;;;;2.93;0.70;;;13.30;99.90;;;;;;5051861;28;20319;-46
2021/05/17 12:45:06;;;;;;;2.07;0.77;;;13.30;99.90;;;;;;5051178;28;20262;-48
2021/05/17 12:47:43;;;;;;;1.13;0.60;;;13.30;99.90;;;;;;5067190;28;20373;-46
2021/05/17 12:50:19;;;;;;;1.93;0.60;;;13.10;99.90;;;;;;5095011;28;20253;-46
2021/05/17 12:52:46;;;;;;;0.77;0.47;;;12.90;99.90;;;;;;5094516;28;20177;-47
2021/05/17 12:55:17;;;;;;;1.90;0.50;;;12.70;99.90;;;;;;5094360;28;20178;-46
2021/05/17 12:57:43;;;;;;;0.63;0.40;;;12.60;99.90;;;;;;5093516;28;20731;-52
2021/05/17 13:00:09;;;;;;;1.17;0.40;;;12.50;99.90;;;;;;5094335;28;20496;-46
2021/05/17 13:02:35;;;;;;;0.70;0.33;;;12.60;99.90;;;;;;5092899;28;20281;-46
2021/05/17 13:05:01;;;;;;;1.50;0.60;;;12.70;99.90;;;;;;5094078;28;20202;-47
2021/05/17 13:07:26;;;;;;;1.23;0.50;;;13.00;99.90;;;;;;5094006;28;20192;-46
2021/05/17 13:09:56;;;;;;;0.60;0.47;;;13.20;99.90;;;;;;5094004;28;20171;-51